TVF65RM LFML-DAAG
Flight info
| Callsign | TVF65RM |
|---|---|
| Flight time | 1h 17m |
| Altitude | 35000 |
| Route | VATIR N852 GENIO N855 BUYAH DCT SARAN DCT ALR |
| Aircraft | B738/M-SDE2E3FGHIRWXY/LB1 |
Departure
| Time | 2026-05-08 19:21 |
|---|---|
| Airport | Marseille Provence Airport (LFML) |
Arrival
| Time | 2026-05-08 20:39 |
|---|---|
| Airport | Houari Boumediene Airport (DAAG) |
| Time | Latitude | Longitude | Altitude | Speed | Heading |
|---|---|---|---|---|---|
| 2026-05-08 18:57 | 43.44013 | 5.22157 | 36 ft | 0 kts | 33° |
| 2026-05-08 19:13 | 43.44003 | 5.22147 | 36 ft | 4 kts | 30° |
| 2026-05-08 19:13 | 43.43979 | 5.22131 | 33 ft | 4 kts | 18° |
| 2026-05-08 19:14 | 43.43952 | 5.22123 | 33 ft | 4 kts | 0° |
| 2026-05-08 19:14 | 43.43928 | 5.22129 | 34 ft | 4 kts | 325° |
| 2026-05-08 19:14 | 43.43922 | 5.22135 | 34 ft | 0 kts | 314° |
| 2026-05-08 19:17 | 43.43956 | 5.22086 | 34 ft | 19 kts | 315° |
| 2026-05-08 19:17 | 43.43955 | 5.21935 | 36 ft | 19 kts | 224° |
| 2026-05-08 19:17 | 43.43924 | 5.21784 | 36 ft | 19 kts | 307° |
| 2026-05-08 19:18 | 43.43972 | 5.21634 | 35 ft | 18 kts | 246° |
| 2026-05-08 19:18 | 43.43926 | 5.21489 | 36 ft | 18 kts | 295° |
| 2026-05-08 19:18 | 43.44007 | 5.21366 | 36 ft | 18 kts | 313° |
| 2026-05-08 19:18 | 43.44112 | 5.21210 | 36 ft | 23 kts | 314° |
| 2026-05-08 19:19 | 43.44225 | 5.21057 | 36 ft | 22 kts | 313° |
| 2026-05-08 19:19 | 43.44311 | 5.20884 | 36 ft | 22 kts | 298° |
| 2026-05-08 19:19 | 43.44407 | 5.20727 | 36 ft | 21 kts | 314° |
| 2026-05-08 19:19 | 43.44509 | 5.20584 | 36 ft | 21 kts | 314° |
| 2026-05-08 19:20 | 43.44606 | 5.20448 | 36 ft | 20 kts | 314° |
| 2026-05-08 19:20 | 43.44638 | 5.20401 | 36 ft | 20 kts | 313° |
| 2026-05-08 19:20 | 43.44635 | 5.20243 | 35 ft | 15 kts | 225° |
| 2026-05-08 19:20 | 43.44586 | 5.20205 | 35 ft | 5 kts | 160° |
| 2026-05-08 19:21 | 43.44517 | 5.20301 | 36 ft | 40 kts | 134° |
| 2026-05-08 19:21 | 43.44148 | 5.20825 | 34 ft | 110 kts | 134° |
| 2026-05-08 19:21 | 43.43480 | 5.21769 | 71 ft | 161 kts | 134° |
| 2026-05-08 19:21 | 43.42669 | 5.22880 | 676 ft | 164 kts | 134° |
| 2026-05-08 19:22 | 43.41783 | 5.23864 | 1388 ft | 168 kts | 161° |
| 2026-05-08 19:22 | 43.40685 | 5.24415 | 1999 ft | 179 kts | 148° |
| 2026-05-08 19:22 | 43.39581 | 5.25465 | 2338 ft | 203 kts | 146° |
| 2026-05-08 19:22 | 43.38363 | 5.26558 | 2817 ft | 212 kts | 147° |
| 2026-05-08 19:23 | 43.37133 | 5.27640 | 3441 ft | 214 kts | 148° |
| 2026-05-08 19:23 | 43.35838 | 5.28682 | 4017 ft | 217 kts | 159° |
| 2026-05-08 19:23 | 43.34341 | 5.28801 | 4637 ft | 222 kts | 194° |
| 2026-05-08 19:23 | 43.32954 | 5.27686 | 4898 ft | 250 kts | 226° |
| 2026-05-08 19:24 | 43.31874 | 5.25679 | 5351 ft | 267 kts | 234° |
| 2026-05-08 19:24 | 43.30833 | 5.23544 | 6113 ft | 271 kts | 235° |
| 2026-05-08 19:24 | 43.29787 | 5.21386 | 6936 ft | 272 kts | 235° |
| 2026-05-08 19:24 | 43.28733 | 5.19222 | 7719 ft | 273 kts | 235° |
| 2026-05-08 19:25 | 43.27667 | 5.17047 | 8508 ft | 275 kts | 235° |
| 2026-05-08 19:25 | 43.26590 | 5.14862 | 9300 ft | 277 kts | 234° |
| 2026-05-08 19:25 | 43.25503 | 5.12664 | 10079 ft | 279 kts | 234° |
| 2026-05-08 19:25 | 43.24389 | 5.10416 | 10484 ft | 295 kts | 234° |
| 2026-05-08 19:26 | 43.23199 | 5.08025 | 10654 ft | 318 kts | 234° |
| 2026-05-08 19:26 | 43.21909 | 5.05434 | 10824 ft | 339 kts | 234° |
| 2026-05-08 19:26 | 43.20547 | 5.02707 | 11197 ft | 351 kts | 234° |
| 2026-05-08 19:26 | 43.19056 | 5.00014 | 11820 ft | 355 kts | 230° |
| 2026-05-08 19:27 | 43.17477 | 4.97388 | 12521 ft | 357 kts | 229° |
| 2026-05-08 19:27 | 43.15892 | 4.94794 | 13237 ft | 361 kts | 229° |
| 2026-05-08 19:27 | 43.14276 | 4.92135 | 13958 ft | 364 kts | 229° |
| 2026-05-08 19:27 | 43.12654 | 4.89447 | 14626 ft | 367 kts | 230° |
| 2026-05-08 19:28 | 43.11030 | 4.86739 | 15335 ft | 369 kts | 230° |
| 2026-05-08 19:28 | 43.09397 | 4.84010 | 16004 ft | 372 kts | 230° |
| 2026-05-08 19:28 | 43.07773 | 4.81294 | 16655 ft | 375 kts | 231° |
| 2026-05-08 19:28 | 43.06091 | 4.78532 | 17308 ft | 378 kts | 227° |
| 2026-05-08 19:29 | 43.04004 | 4.76291 | 17920 ft | 384 kts | 210° |
| 2026-05-08 19:29 | 43.01667 | 4.74585 | 18559 ft | 386 kts | 210° |
| 2026-05-08 19:29 | 42.99288 | 4.72832 | 19109 ft | 389 kts | 210° |
| 2026-05-08 19:29 | 42.96900 | 4.71054 | 19710 ft | 390 kts | 210° |
| 2026-05-08 19:30 | 42.94517 | 4.69268 | 20308 ft | 392 kts | 211° |
| 2026-05-08 19:30 | 42.92118 | 4.67464 | 20871 ft | 394 kts | 211° |
| 2026-05-08 19:30 | 42.89748 | 4.65677 | 21422 ft | 395 kts | 211° |
| 2026-05-08 19:30 | 42.87332 | 4.63854 | 21972 ft | 397 kts | 211° |
| 2026-05-08 19:31 | 42.84904 | 4.62022 | 22498 ft | 399 kts | 212° |
| 2026-05-08 19:31 | 42.82460 | 4.60179 | 23014 ft | 402 kts | 212° |
| 2026-05-08 19:31 | 42.80007 | 4.58332 | 23529 ft | 404 kts | 212° |
| 2026-05-08 19:31 | 42.77540 | 4.56476 | 23983 ft | 405 kts | 212° |
| 2026-05-08 19:32 | 42.75065 | 4.54616 | 24415 ft | 407 kts | 212° |
| 2026-05-08 19:32 | 42.72606 | 4.52769 | 24802 ft | 409 kts | 212° |
| 2026-05-08 19:32 | 42.70104 | 4.50892 | 25176 ft | 412 kts | 211° |
| 2026-05-08 19:32 | 42.67577 | 4.48998 | 25554 ft | 414 kts | 211° |
| 2026-05-08 19:33 | 42.65047 | 4.47104 | 25937 ft | 416 kts | 211° |
| 2026-05-08 19:33 | 42.62500 | 4.45198 | 26295 ft | 418 kts | 211° |
| 2026-05-08 19:33 | 42.59939 | 4.43284 | 26649 ft | 420 kts | 211° |
| 2026-05-08 19:33 | 42.57368 | 4.41365 | 27001 ft | 423 kts | 211° |
| 2026-05-08 19:34 | 42.54780 | 4.39434 | 27338 ft | 425 kts | 211° |
| 2026-05-08 19:34 | 42.52210 | 4.37519 | 27661 ft | 426 kts | 211° |
| 2026-05-08 19:34 | 42.49598 | 4.35574 | 28012 ft | 428 kts | 211° |
| 2026-05-08 19:34 | 42.46984 | 4.33629 | 28326 ft | 430 kts | 211° |
| 2026-05-08 19:35 | 42.44351 | 4.31672 | 28617 ft | 432 kts | 211° |
| 2026-05-08 19:35 | 42.41701 | 4.29705 | 28918 ft | 434 kts | 211° |
| 2026-05-08 19:35 | 42.39047 | 4.27736 | 29255 ft | 435 kts | 211° |
| 2026-05-08 19:35 | 42.36421 | 4.25791 | 29721 ft | 433 kts | 211° |
| 2026-05-08 19:36 | 42.33787 | 4.23842 | 30212 ft | 431 kts | 211° |
| 2026-05-08 19:36 | 42.31158 | 4.21898 | 30611 ft | 428 kts | 211° |
| 2026-05-08 19:36 | 42.28546 | 4.19968 | 30991 ft | 427 kts | 211° |
| 2026-05-08 19:36 | 42.25937 | 4.18043 | 31352 ft | 426 kts | 212° |
| 2026-05-08 19:37 | 42.23340 | 4.16126 | 31721 ft | 424 kts | 212° |
| 2026-05-08 19:37 | 42.20783 | 4.14240 | 32100 ft | 422 kts | 212° |
| 2026-05-08 19:37 | 42.18208 | 4.12344 | 32460 ft | 421 kts | 212° |
| 2026-05-08 19:37 | 42.15637 | 4.10452 | 32792 ft | 420 kts | 212° |
| 2026-05-08 19:38 | 42.13072 | 4.08565 | 33141 ft | 419 kts | 212° |
| 2026-05-08 19:38 | 42.10515 | 4.06685 | 33587 ft | 415 kts | 212° |
| 2026-05-08 19:38 | 42.07986 | 4.04828 | 34076 ft | 411 kts | 213° |
| 2026-05-08 19:38 | 42.05516 | 4.03013 | 34345 ft | 410 kts | 213° |
| 2026-05-08 19:39 | 42.03005 | 4.01167 | 34529 ft | 412 kts | 213° |
| 2026-05-08 19:39 | 42.00479 | 3.99313 | 34677 ft | 414 kts | 213° |
| 2026-05-08 19:39 | 41.97943 | 3.97455 | 34874 ft | 415 kts | 213° |
| 2026-05-08 19:39 | 41.95408 | 3.95601 | 35042 ft | 416 kts | 212° |
| 2026-05-08 19:40 | 41.92770 | 3.93930 | 35036 ft | 422 kts | 205° |
| 2026-05-08 19:40 | 41.88016 | 3.92266 | 35047 ft | 427 kts | 196° |
| 2026-05-08 19:41 | 41.82194 | 3.90983 | 35046 ft | 421 kts | 196° |
| 2026-05-08 19:41 | 41.76420 | 3.89675 | 35048 ft | 420 kts | 196° |
| 2026-05-08 19:42 | 41.70655 | 3.88337 | 35029 ft | 420 kts | 197° |
| 2026-05-08 19:42 | 41.64927 | 3.87004 | 35038 ft | 420 kts | 197° |
| 2026-05-08 19:43 | 41.59147 | 3.85665 | 35048 ft | 421 kts | 197° |
| 2026-05-08 19:43 | 41.53397 | 3.84350 | 35042 ft | 422 kts | 197° |
| 2026-05-08 19:44 | 41.47600 | 3.83031 | 35028 ft | 422 kts | 198° |
| 2026-05-08 19:44 | 41.41788 | 3.81707 | 35042 ft | 423 kts | 198° |
| 2026-05-08 19:45 | 41.35985 | 3.80387 | 35055 ft | 423 kts | 199° |
| 2026-05-08 19:45 | 41.30204 | 3.79074 | 35043 ft | 424 kts | 199° |
| 2026-05-08 19:46 | 41.24386 | 3.77756 | 35042 ft | 424 kts | 200° |
| 2026-05-08 19:46 | 41.15655 | 3.75781 | 35044 ft | 423 kts | 200° |
| 2026-05-08 19:47 | 41.09882 | 3.74478 | 35042 ft | 423 kts | 200° |
| 2026-05-08 19:47 | 41.04067 | 3.73166 | 35039 ft | 421 kts | 200° |
| 2026-05-08 19:48 | 40.98284 | 3.71862 | 35036 ft | 421 kts | 201° |
| 2026-05-08 19:48 | 40.92543 | 3.70569 | 35038 ft | 420 kts | 200° |
| 2026-05-08 19:49 | 40.86765 | 3.69270 | 35039 ft | 420 kts | 201° |
| 2026-05-08 19:49 | 40.80996 | 3.67977 | 35032 ft | 420 kts | 201° |
| 2026-05-08 19:50 | 40.75229 | 3.66685 | 35037 ft | 420 kts | 201° |
| 2026-05-08 19:50 | 40.69500 | 3.65404 | 35039 ft | 420 kts | 201° |
| 2026-05-08 19:51 | 40.63730 | 3.64116 | 35039 ft | 420 kts | 201° |
| 2026-05-08 19:51 | 40.57954 | 3.62829 | 35035 ft | 420 kts | 201° |
| 2026-05-08 19:52 | 40.52215 | 3.61553 | 35038 ft | 421 kts | 201° |
| 2026-05-08 19:52 | 40.46420 | 3.60267 | 35036 ft | 421 kts | 201° |
| 2026-05-08 19:53 | 40.40660 | 3.58990 | 35006 ft | 421 kts | 201° |
| 2026-05-08 19:53 | 40.34880 | 3.57713 | 35029 ft | 420 kts | 201° |
| 2026-05-08 19:54 | 40.29141 | 3.56445 | 35037 ft | 420 kts | 201° |
| 2026-05-08 19:54 | 40.23369 | 3.55172 | 35031 ft | 419 kts | 201° |
| 2026-05-08 19:55 | 40.17644 | 3.53912 | 35016 ft | 418 kts | 201° |
| 2026-05-08 19:55 | 40.11886 | 3.52647 | 35023 ft | 418 kts | 201° |
| 2026-05-08 19:56 | 40.06186 | 3.51394 | 35027 ft | 417 kts | 201° |
| 2026-05-08 19:56 | 40.00445 | 3.50128 | 35033 ft | 417 kts | 201° |
| 2026-05-08 19:57 | 39.94718 | 3.48866 | 35017 ft | 417 kts | 201° |
| 2026-05-08 19:57 | 39.89035 | 3.47616 | 35022 ft | 416 kts | 201° |
| 2026-05-08 19:58 | 39.83326 | 3.46363 | 35021 ft | 416 kts | 201° |
| 2026-05-08 19:58 | 39.77617 | 3.45111 | 35022 ft | 416 kts | 201° |
| 2026-05-08 19:59 | 39.71911 | 3.43863 | 35012 ft | 414 kts | 200° |
| 2026-05-08 19:59 | 39.66214 | 3.42647 | 35008 ft | 415 kts | 200° |
| 2026-05-08 20:00 | 39.60544 | 3.41480 | 35016 ft | 415 kts | 200° |
| 2026-05-08 20:00 | 39.54828 | 3.40307 | 35024 ft | 415 kts | 200° |
| 2026-05-08 20:01 | 39.49113 | 3.39132 | 35012 ft | 415 kts | 200° |
| 2026-05-08 20:01 | 39.43440 | 3.37965 | 35024 ft | 415 kts | 200° |
| 2026-05-08 20:02 | 39.37716 | 3.36790 | 35020 ft | 415 kts | 200° |
| 2026-05-08 20:02 | 39.32027 | 3.35624 | 35024 ft | 415 kts | 200° |
| 2026-05-08 20:03 | 39.26315 | 3.34455 | 35018 ft | 414 kts | 199° |
| 2026-05-08 20:03 | 39.20609 | 3.33289 | 35016 ft | 414 kts | 199° |
| 2026-05-08 20:04 | 39.14945 | 3.32133 | 35018 ft | 414 kts | 199° |
| 2026-05-08 20:04 | 39.09225 | 3.30968 | 35020 ft | 414 kts | 199° |
| 2026-05-08 20:05 | 39.03559 | 3.29816 | 35007 ft | 414 kts | 199° |
| 2026-05-08 20:05 | 38.97858 | 3.28655 | 35013 ft | 414 kts | 199° |
| 2026-05-08 20:06 | 38.92159 | 3.27491 | 35018 ft | 414 kts | 199° |
| 2026-05-08 20:06 | 38.86461 | 3.26329 | 35015 ft | 414 kts | 199° |
| 2026-05-08 20:07 | 38.80792 | 3.25175 | 35009 ft | 414 kts | 199° |
| 2026-05-08 20:07 | 38.75085 | 3.24016 | 35007 ft | 414 kts | 199° |
| 2026-05-08 20:08 | 38.69415 | 3.22866 | 35008 ft | 414 kts | 199° |
| 2026-05-08 20:08 | 38.63711 | 3.21711 | 35008 ft | 415 kts | 199° |
| 2026-05-08 20:09 | 38.58009 | 3.20558 | 34996 ft | 415 kts | 199° |
| 2026-05-08 20:09 | 38.52309 | 3.19407 | 35004 ft | 415 kts | 199° |
| 2026-05-08 20:10 | 38.46637 | 3.18264 | 35005 ft | 415 kts | 199° |
| 2026-05-08 20:10 | 38.40916 | 3.17113 | 35004 ft | 415 kts | 199° |
| 2026-05-08 20:11 | 38.35202 | 3.15964 | 35005 ft | 415 kts | 199° |
| 2026-05-08 20:11 | 38.29519 | 3.14865 | 35003 ft | 419 kts | 195° |
| 2026-05-08 20:12 | 38.26560 | 3.14737 | 34807 ft | 431 kts | 189° |
| 2026-05-08 20:12 | 38.23536 | 3.14815 | 34258 ft | 435 kts | 189° |
| 2026-05-08 20:12 | 38.20513 | 3.14920 | 33549 ft | 434 kts | 189° |
| 2026-05-08 20:12 | 38.17496 | 3.14999 | 32833 ft | 433 kts | 189° |
| 2026-05-08 20:13 | 38.14482 | 3.15055 | 32091 ft | 433 kts | 188° |
| 2026-05-08 20:13 | 38.11455 | 3.15218 | 31385 ft | 440 kts | 183° |
| 2026-05-08 20:13 | 38.08395 | 3.15933 | 30549 ft | 455 kts | 174° |
| 2026-05-08 20:13 | 38.05337 | 3.16993 | 29919 ft | 455 kts | 173° |
| 2026-05-08 20:14 | 38.02295 | 3.18084 | 29271 ft | 451 kts | 173° |
| 2026-05-08 20:14 | 37.99326 | 3.19151 | 28723 ft | 446 kts | 173° |
| 2026-05-08 20:14 | 37.96353 | 3.20209 | 28200 ft | 440 kts | 173° |
| 2026-05-08 20:14 | 37.93408 | 3.21240 | 27660 ft | 435 kts | 173° |
| 2026-05-08 20:15 | 37.90499 | 3.22247 | 27122 ft | 430 kts | 173° |
| 2026-05-08 20:15 | 37.87660 | 3.23221 | 26640 ft | 425 kts | 173° |
| 2026-05-08 20:15 | 37.84821 | 3.24191 | 26131 ft | 421 kts | 172° |
| 2026-05-08 20:15 | 37.82004 | 3.25151 | 25627 ft | 417 kts | 172° |
| 2026-05-08 20:16 | 37.79210 | 3.26102 | 25130 ft | 413 kts | 172° |
| 2026-05-08 20:16 | 37.76438 | 3.27045 | 24632 ft | 410 kts | 172° |
| 2026-05-08 20:16 | 37.73686 | 3.27981 | 24141 ft | 407 kts | 172° |
| 2026-05-08 20:16 | 37.70990 | 3.28897 | 23637 ft | 405 kts | 171° |
| 2026-05-08 20:17 | 37.68276 | 3.29819 | 23073 ft | 402 kts | 171° |
| 2026-05-08 20:17 | 37.65578 | 3.30736 | 22522 ft | 398 kts | 171° |
| 2026-05-08 20:17 | 37.62913 | 3.31642 | 22039 ft | 394 kts | 171° |
| 2026-05-08 20:17 | 37.60275 | 3.32538 | 21543 ft | 390 kts | 171° |
| 2026-05-08 20:18 | 37.57654 | 3.33427 | 21059 ft | 387 kts | 171° |
| 2026-05-08 20:18 | 37.55062 | 3.34305 | 20581 ft | 384 kts | 171° |
| 2026-05-08 20:18 | 37.52520 | 3.35165 | 20114 ft | 381 kts | 171° |
| 2026-05-08 20:18 | 37.49963 | 3.36030 | 19645 ft | 379 kts | 170° |
| 2026-05-08 20:19 | 37.47423 | 3.36888 | 19173 ft | 377 kts | 170° |
| 2026-05-08 20:19 | 37.44900 | 3.37740 | 18709 ft | 375 kts | 170° |
| 2026-05-08 20:19 | 37.42376 | 3.38591 | 18199 ft | 374 kts | 170° |
| 2026-05-08 20:19 | 37.39864 | 3.39439 | 17687 ft | 372 kts | 169° |
| 2026-05-08 20:20 | 37.37377 | 3.40278 | 17203 ft | 369 kts | 169° |
| 2026-05-08 20:20 | 37.34939 | 3.41100 | 16740 ft | 366 kts | 169° |
| 2026-05-08 20:20 | 37.32491 | 3.41925 | 16282 ft | 362 kts | 169° |
| 2026-05-08 20:20 | 37.30065 | 3.42742 | 15834 ft | 359 kts | 169° |
| 2026-05-08 20:21 | 37.27657 | 3.43551 | 15378 ft | 356 kts | 169° |
| 2026-05-08 20:21 | 37.25267 | 3.44355 | 14935 ft | 353 kts | 169° |
| 2026-05-08 20:21 | 37.22898 | 3.45150 | 14496 ft | 351 kts | 169° |
| 2026-05-08 20:21 | 37.20569 | 3.45932 | 14059 ft | 348 kts | 169° |
| 2026-05-08 20:22 | 37.18235 | 3.46715 | 13576 ft | 346 kts | 169° |
| 2026-05-08 20:22 | 37.15912 | 3.47494 | 13081 ft | 343 kts | 169° |
| 2026-05-08 20:22 | 37.13608 | 3.48265 | 12608 ft | 341 kts | 169° |
| 2026-05-08 20:22 | 37.12092 | 3.48769 | 12282 ft | 339 kts | 171° |
| 2026-05-08 20:23 | 37.09022 | 3.48818 | 11579 ft | 328 kts | 198° |
| 2026-05-08 20:23 | 37.07016 | 3.47568 | 11140 ft | 321 kts | 220° |
| 2026-05-08 20:23 | 37.05502 | 3.45600 | 10798 ft | 315 kts | 230° |
| 2026-05-08 20:23 | 37.04161 | 3.43497 | 10676 ft | 303 kts | 232° |
| 2026-05-08 20:24 | 37.03050 | 3.41302 | 10535 ft | 293 kts | 240° |
| 2026-05-08 20:24 | 37.02117 | 3.39057 | 10262 ft | 289 kts | 242° |
| 2026-05-08 20:24 | 37.01224 | 3.36828 | 10016 ft | 284 kts | 242° |
| 2026-05-08 20:24 | 37.00353 | 3.34637 | 9771 ft | 279 kts | 242° |
| 2026-05-08 20:25 | 36.99499 | 3.32484 | 9505 ft | 274 kts | 242° |
| 2026-05-08 20:25 | 36.98667 | 3.30387 | 9243 ft | 270 kts | 242° |
| 2026-05-08 20:25 | 36.97837 | 3.28302 | 8988 ft | 266 kts | 242° |
| 2026-05-08 20:25 | 36.97013 | 3.26242 | 8738 ft | 263 kts | 242° |
| 2026-05-08 20:26 | 36.96196 | 3.24211 | 8481 ft | 260 kts | 242° |
| 2026-05-08 20:26 | 36.95384 | 3.22199 | 8231 ft | 257 kts | 242° |
| 2026-05-08 20:26 | 36.94591 | 3.20241 | 7982 ft | 254 kts | 242° |
| 2026-05-08 20:26 | 36.93789 | 3.18254 | 7732 ft | 252 kts | 242° |
| 2026-05-08 20:27 | 36.93015 | 3.16334 | 7496 ft | 249 kts | 242° |
| 2026-05-08 20:27 | 36.92242 | 3.14424 | 7235 ft | 242 kts | 242° |
| 2026-05-08 20:27 | 36.91491 | 3.12574 | 6984 ft | 235 kts | 242° |
| 2026-05-08 20:27 | 36.90761 | 3.10782 | 6737 ft | 228 kts | 242° |
| 2026-05-08 20:28 | 36.90045 | 3.09035 | 6486 ft | 222 kts | 242° |
| 2026-05-08 20:28 | 36.89347 | 3.07337 | 6233 ft | 216 kts | 242° |
| 2026-05-08 20:28 | 36.88673 | 3.05700 | 5982 ft | 213 kts | 242° |
| 2026-05-08 20:28 | 36.87974 | 3.04067 | 5785 ft | 212 kts | 235° |
| 2026-05-08 20:29 | 36.87105 | 3.02606 | 5589 ft | 206 kts | 232° |
| 2026-05-08 20:29 | 36.86536 | 3.01669 | 5439 ft | 203 kts | 232° |
| 2026-05-08 20:29 | 36.85701 | 3.00287 | 5233 ft | 196 kts | 231° |
| 2026-05-08 20:29 | 36.84901 | 2.98943 | 5023 ft | 190 kts | 232° |
| 2026-05-08 20:30 | 36.83859 | 2.97182 | 4810 ft | 191 kts | 232° |
| 2026-05-08 20:30 | 36.83060 | 2.95842 | 4641 ft | 194 kts | 232° |
| 2026-05-08 20:30 | 36.82527 | 2.94943 | 4526 ft | 195 kts | 231° |
| 2026-05-08 20:30 | 36.81715 | 2.93576 | 4331 ft | 197 kts | 232° |
| 2026-05-08 20:31 | 36.80890 | 2.92193 | 4151 ft | 200 kts | 231° |
| 2026-05-08 20:31 | 36.80060 | 2.90789 | 3946 ft | 200 kts | 231° |
| 2026-05-08 20:31 | 36.79245 | 2.89386 | 3748 ft | 198 kts | 232° |
| 2026-05-08 20:31 | 36.78439 | 2.88003 | 3534 ft | 197 kts | 231° |
| 2026-05-08 20:32 | 36.77525 | 2.86762 | 3302 ft | 193 kts | 206° |
| 2026-05-08 20:32 | 36.76264 | 2.86428 | 3117 ft | 183 kts | 167° |
| 2026-05-08 20:32 | 36.75099 | 2.86984 | 2941 ft | 182 kts | 147° |
| 2026-05-08 20:32 | 36.74000 | 2.87781 | 2758 ft | 180 kts | 146° |
| 2026-05-08 20:33 | 36.72933 | 2.88576 | 2537 ft | 176 kts | 146° |
| 2026-05-08 20:33 | 36.71891 | 2.89349 | 2338 ft | 172 kts | 146° |
| 2026-05-08 20:33 | 36.70887 | 2.90094 | 2201 ft | 165 kts | 148° |
| 2026-05-08 20:33 | 36.69996 | 2.90994 | 2170 ft | 168 kts | 120° |
| 2026-05-08 20:34 | 36.69823 | 2.92382 | 2218 ft | 166 kts | 86° |
| 2026-05-08 20:34 | 36.69810 | 2.93829 | 2199 ft | 169 kts | 92° |
| 2026-05-08 20:34 | 36.69715 | 2.96703 | 2200 ft | 162 kts | 92° |
| 2026-05-08 20:35 | 36.69677 | 2.98099 | 2182 ft | 161 kts | 92° |
| 2026-05-08 20:35 | 36.69640 | 2.99520 | 2208 ft | 166 kts | 92° |
| 2026-05-08 20:35 | 36.69603 | 3.00972 | 2199 ft | 167 kts | 92° |
| 2026-05-08 20:35 | 36.69566 | 3.02418 | 2182 ft | 166 kts | 92° |
| 2026-05-08 20:36 | 36.69531 | 3.03817 | 2165 ft | 156 kts | 91° |
| 2026-05-08 20:36 | 36.69497 | 3.05176 | 1958 ft | 155 kts | 92° |
| 2026-05-08 20:36 | 36.69464 | 3.06503 | 1752 ft | 152 kts | 91° |
| 2026-05-08 20:36 | 36.69431 | 3.07809 | 1560 ft | 151 kts | 91° |
| 2026-05-08 20:37 | 36.69399 | 3.09103 | 1373 ft | 148 kts | 91° |
| 2026-05-08 20:37 | 36.69367 | 3.10393 | 1169 ft | 150 kts | 92° |
| 2026-05-08 20:37 | 36.69335 | 3.11697 | 969 ft | 151 kts | 92° |
| 2026-05-08 20:37 | 36.69304 | 3.12981 | 761 ft | 149 kts | 91° |
| 2026-05-08 20:38 | 36.69273 | 3.14243 | 559 ft | 143 kts | 91° |
| 2026-05-08 20:38 | 36.69245 | 3.15477 | 379 ft | 144 kts | 90° |
| 2026-05-08 20:38 | 36.69214 | 3.16742 | 192 ft | 147 kts | 90° |
| 2026-05-08 20:38 | 36.69183 | 3.18009 | 71 ft | 140 kts | 91° |
| 2026-05-08 20:39 | 36.69161 | 3.18988 | 74 ft | 82 kts | 91° |
| 2026-05-08 20:39 | 36.69149 | 3.19522 | 66 ft | 55 kts | 90° |
| 2026-05-08 20:39 | 36.69195 | 3.19831 | 68 ft | 21 kts | 68° |
| 2026-05-08 20:39 | 36.69254 | 3.19993 | 65 ft | 21 kts | 63° |
| 2026-05-08 20:40 | 36.69297 | 3.20159 | 64 ft | 20 kts | 85° |
| 2026-05-08 20:40 | 36.69354 | 3.20295 | 61 ft | 19 kts | 15° |
| 2026-05-08 20:40 | 36.69472 | 3.20353 | 69 ft | 19 kts | 28° |
| 2026-05-08 20:40 | 36.69592 | 3.20393 | 62 ft | 18 kts | 54° |
| 2026-05-08 20:41 | 36.69622 | 3.20516 | 65 ft | 12 kts | 39° |
| 2026-05-08 20:41 | 36.69688 | 3.20545 | 64 ft | 0 kts | 18° |
| 2026-05-08 20:41 | 36.69690 | 3.20546 | 65 ft | 0 kts | 18° |
| 2026-05-08 21:01 | 36.69689 | 3.20546 | 69 ft | 1 kts | 18° |
| 2026-05-08 21:01 | 36.69666 | 3.20536 | 61 ft | 4 kts | 20° |
| 2026-05-08 21:01 | 36.69643 | 3.20526 | 64 ft | 3 kts | 20° |
| 2026-05-08 21:02 | 36.69618 | 3.20519 | 61 ft | 4 kts | 348° |
| 2026-05-08 21:02 | 36.69601 | 3.20533 | 62 ft | 4 kts | 283° |